sensor_id;sensor_type;location;lat;lon;timestamp;P1;durP1;ratioP1;P2;durP2;ratioP2
7359;SDS011;3720;48.274;7.796;2023-07-29T00:02:28;3.28;;;1.40;;
7359;SDS011;3720;48.274;7.796;2023-07-29T00:05:02;2.17;;;1.58;;
7359;SDS011;3720;48.274;7.796;2023-07-29T00:07:36;2.33;;;1.30;;
7359;SDS011;3720;48.274;7.796;2023-07-29T00:10:08;4.03;;;1.45;;
7359;SDS011;3720;48.274;7.796;2023-07-29T00:12:40;2.60;;;1.45;;
7359;SDS011;3720;48.274;7.796;2023-07-29T00:15:11;1.85;;;1.30;;
7359;SDS011;3720;48.274;7.796;2023-07-29T00:17:43;1.90;;;1.17;;
7359;SDS011;3720;48.274;7.796;2023-07-29T00:20:15;2.55;;;1.40;;
7359;SDS011;3720;48.274;7.796;2023-07-29T00:22:49;1.65;;;1.20;;
7359;SDS011;3720;48.274;7.796;2023-07-29T00:25:23;3.40;;;1.10;;
7359;SDS011;3720;48.274;7.796;2023-07-29T00:27:55;5.47;;;1.48;;
7359;SDS011;3720;48.274;7.796;2023-07-29T00:30:28;2.85;;;1.40;;
7359;SDS011;3720;48.274;7.796;2023-07-29T00:33:00;8.35;;;1.92;;
7359;SDS011;3720;48.274;7.796;2023-07-29T00:35:32;3.72;;;1.40;;
7359;SDS011;3720;48.274;7.796;2023-07-29T00:38:05;4.10;;;1.30;;
7359;SDS011;3720;48.274;7.796;2023-07-29T00:40:37;3.15;;;1.35;;
7359;SDS011;3720;48.274;7.796;2023-07-29T00:43:09;4.95;;;1.40;;
7359;SDS011;3720;48.274;7.796;2023-07-29T00:45:41;3.45;;;1.33;;
7359;SDS011;3720;48.274;7.796;2023-07-29T00:48:14;3.92;;;1.20;;
7359;SDS011;3720;48.274;7.796;2023-07-29T00:50:46;3.08;;;1.50;;
7359;SDS011;3720;48.274;7.796;2023-07-29T00:53:21;1.33;;;1.20;;
7359;SDS011;3720;48.274;7.796;2023-07-29T00:55:52;1.52;;;1.10;;
7359;SDS011;3720;48.274;7.796;2023-07-29T00:58:25;5.40;;;1.40;;
7359;SDS011;3720;48.274;7.796;2023-07-29T01:00:56;1.90;;;1.30;;
7359;SDS011;3720;48.274;7.796;2023-07-29T01:03:28;2.05;;;1.20;;
7359;SDS011;3720;48.274;7.796;2023-07-29T01:06:04;2.25;;;1.25;;
7359;SDS011;3720;48.274;7.796;2023-07-29T01:08:46;1.30;;;1.20;;
7359;SDS011;3720;48.274;7.796;2023-07-29T01:11:27;2.88;;;1.38;;
7359;SDS011;3720;48.274;7.796;2023-07-29T01:14:13;2.17;;;1.30;;
7359;SDS011;3720;48.274;7.796;2023-07-29T01:17:00;3.85;;;1.35;;
7359;SDS011;3720;48.274;7.796;2023-07-29T01:19:41;4.97;;;1.23;;
7359;SDS011;3720;48.274;7.796;2023-07-29T01:22:19;3.15;;;1.38;;
7359;SDS011;3720;48.274;7.796;2023-07-29T01:24:54;5.30;;;1.27;;
7359;SDS011;3720;48.274;7.796;2023-07-29T01:27:26;4.05;;;1.30;;
7359;SDS011;3720;48.274;7.796;2023-07-29T01:29:58;5.47;;;1.40;;
7359;SDS011;3720;48.274;7.796;2023-07-29T01:32:33;2.33;;;1.30;;
7359;SDS011;3720;48.274;7.796;2023-07-29T01:35:15;5.63;;;1.50;;
7359;SDS011;3720;48.274;7.796;2023-07-29T01:37:51;5.13;;;1.58;;
7359;SDS011;3720;48.274;7.796;2023-07-29T01:40:27;3.25;;;1.38;;
7359;SDS011;3720;48.274;7.796;2023-07-29T01:43:00;3.38;;;1.42;;
7359;SDS011;3720;48.274;7.796;2023-07-29T01:45:32;4.60;;;1.40;;
7359;SDS011;3720;48.274;7.796;2023-07-29T01:48:07;3.60;;;1.45;;
7359;SDS011;3720;48.274;7.796;2023-07-29T01:50:39;3.88;;;1.50;;
7359;SDS011;3720;48.274;7.796;2023-07-29T01:53:11;4.20;;;1.63;;
7359;SDS011;3720;48.274;7.796;2023-07-29T01:55:44;2.90;;;1.42;;
7359;SDS011;3720;48.274;7.796;2023-07-29T01:58:16;4.40;;;1.30;;
7359;SDS011;3720;48.274;7.796;2023-07-29T02:00:48;3.33;;;1.38;;
7359;SDS011;3720;48.274;7.796;2023-07-29T02:03:20;1.35;;;1.20;;
7359;SDS011;3720;48.274;7.796;2023-07-29T02:05:52;5.20;;;1.33;;
7359;SDS011;3720;48.274;7.796;2023-07-29T02:08:24;5.30;;;1.67;;
7359;SDS011;3720;48.274;7.796;2023-07-29T02:10:57;6.00;;;1.70;;
7359;SDS011;3720;48.274;7.796;2023-07-29T02:13:29;2.55;;;1.40;;
7359;SDS011;3720;48.274;7.796;2023-07-29T02:16:01;1.63;;;1.40;;
7359;SDS011;3720;48.274;7.796;2023-07-29T02:18:33;1.60;;;1.30;;
7359;SDS011;3720;48.274;7.796;2023-07-29T02:21:05;2.10;;;1.52;;
7359;SDS011;3720;48.274;7.796;2023-07-29T02:23:36;2.13;;;1.38;;
7359;SDS011;3720;48.274;7.796;2023-07-29T02:26:10;1.42;;;1.30;;
7359;SDS011;3720;48.274;7.796;2023-07-29T02:28:41;3.45;;;1.40;;
7359;SDS011;3720;48.274;7.796;2023-07-29T02:31:15;2.92;;;1.30;;
7359;SDS011;3720;48.274;7.796;2023-07-29T02:33:47;4.35;;;1.58;;
7359;SDS011;3720;48.274;7.796;2023-07-29T02:36:20;2.60;;;1.40;;
7359;SDS011;3720;48.274;7.796;2023-07-29T02:38:51;1.67;;;1.23;;
7359;SDS011;3720;48.274;7.796;2023-07-29T02:41:25;3.85;;;1.40;;
7359;SDS011;3720;48.274;7.796;2023-07-29T02:43:57;1.50;;;1.33;;
7359;SDS011;3720;48.274;7.796;2023-07-29T02:46:28;2.92;;;1.17;;
7359;SDS011;3720;48.274;7.796;2023-07-29T02:49:01;2.78;;;1.30;;
7359;SDS011;3720;48.274;7.796;2023-07-29T02:51:34;1.92;;;1.30;;
7359;SDS011;3720;48.274;7.796;2023-07-29T02:54:06;2.60;;;1.30;;
7359;SDS011;3720;48.274;7.796;2023-07-29T02:56:39;2.55;;;1.30;;
7359;SDS011;3720;48.274;7.796;2023-07-29T02:59:11;2.80;;;1.20;;
7359;SDS011;3720;48.274;7.796;2023-07-29T03:01:43;1.65;;;1.30;;
7359;SDS011;3720;48.274;7.796;2023-07-29T03:04:14;1.88;;;1.27;;
7359;SDS011;3720;48.274;7.796;2023-07-29T03:06:46;3.45;;;1.30;;
7359;SDS011;3720;48.274;7.796;2023-07-29T03:09:18;2.75;;;1.50;;
7359;SDS011;3720;48.274;7.796;2023-07-29T03:11:52;1.50;;;1.40;;
7359;SDS011;3720;48.274;7.796;2023-07-29T03:14:24;3.28;;;1.80;;
7359;SDS011;3720;48.274;7.796;2023-07-29T03:16:56;4.22;;;2.00;;
7359;SDS011;3720;48.274;7.796;2023-07-29T03:19:29;2.65;;;2.03;;
7359;SDS011;3720;48.274;7.796;2023-07-29T03:22:01;6.68;;;2.00;;
7359;SDS011;3720;48.274;7.796;2023-07-29T03:24:33;3.13;;;2.05;;
7359;SDS011;3720;48.274;7.796;2023-07-29T03:27:06;2.42;;;1.90;;
7359;SDS011;3720;48.274;7.796;2023-07-29T03:29:39;2.55;;;1.90;;
7359;SDS011;3720;48.274;7.796;2023-07-29T03:32:11;4.97;;;2.05;;
7359;SDS011;3720;48.274;7.796;2023-07-29T03:34:43;2.88;;;1.88;;
7359;SDS011;3720;48.274;7.796;2023-07-29T03:37:15;4.20;;;1.90;;
7359;SDS011;3720;48.274;7.796;2023-07-29T03:39:47;2.92;;;2.00;;
7359;SDS011;3720;48.274;7.796;2023-07-29T03:42:20;2.83;;;1.77;;
7359;SDS011;3720;48.274;7.796;2023-07-29T03:44:52;2.80;;;1.70;;
7359;SDS011;3720;48.274;7.796;2023-07-29T03:47:24;6.22;;;1.90;;
7359;SDS011;3720;48.274;7.796;2023-07-29T03:49:56;2.95;;;1.70;;
7359;SDS011;3720;48.274;7.796;2023-07-29T03:52:27;3.22;;;2.03;;
7359;SDS011;3720;48.274;7.796;2023-07-29T03:54:59;2.75;;;1.98;;
7359;SDS011;3720;48.274;7.796;2023-07-29T03:57:33;3.67;;;1.95;;
7359;SDS011;3720;48.274;7.796;2023-07-29T04:00:05;4.28;;;1.83;;
7359;SDS011;3720;48.274;7.796;2023-07-29T04:02:39;4.35;;;1.98;;
7359;SDS011;3720;48.274;7.796;2023-07-29T04:05:10;3.33;;;1.80;;
7359;SDS011;3720;48.274;7.796;2023-07-29T04:07:42;3.47;;;1.90;;
7359;SDS011;3720;48.274;7.796;2023-07-29T04:10:14;3.30;;;1.77;;
7359;SDS011;3720;48.274;7.796;2023-07-29T04:12:48;3.92;;;1.90;;
7359;SDS011;3720;48.274;7.796;2023-07-29T04:15:20;3.00;;;1.75;;
7359;SDS011;3720;48.274;7.796;2023-07-29T04:17:52;4.30;;;1.80;;
7359;SDS011;3720;48.274;7.796;2023-07-29T04:20:24;3.20;;;1.60;;
7359;SDS011;3720;48.274;7.796;2023-07-29T04:22:55;3.00;;;1.70;;
7359;SDS011;3720;48.274;7.796;2023-07-29T04:25:27;2.70;;;1.52;;
7359;SDS011;3720;48.274;7.796;2023-07-29T04:28:00;4.38;;;1.55;;
7359;SDS011;3720;48.274;7.796;2023-07-29T04:30:33;1.92;;;1.55;;
7359;SDS011;3720;48.274;7.796;2023-07-29T04:33:05;4.05;;;1.60;;
7359;SDS011;3720;48.274;7.796;2023-07-29T04:35:37;3.17;;;1.60;;
7359;SDS011;3720;48.274;7.796;2023-07-29T04:38:09;5.45;;;1.70;;
7359;SDS011;3720;48.274;7.796;2023-07-29T04:40:41;1.95;;;1.60;;
7359;SDS011;3720;48.274;7.796;2023-07-29T04:43:14;2.80;;;1.50;;
7359;SDS011;3720;48.274;7.796;2023-07-29T04:45:46;1.58;;;1.48;;
7359;SDS011;3720;48.274;7.796;2023-07-29T04:48:18;5.72;;;1.90;;
7359;SDS011;3720;48.274;7.796;2023-07-29T04:50:50;4.03;;;1.63;;
7359;SDS011;3720;48.274;7.796;2023-07-29T04:53:22;2.22;;;1.60;;
7359;SDS011;3720;48.274;7.796;2023-07-29T04:55:54;2.45;;;1.70;;
7359;SDS011;3720;48.274;7.796;2023-07-29T04:58:27;3.15;;;1.80;;
7359;SDS011;3720;48.274;7.796;2023-07-29T05:00:59;4.03;;;1.90;;
7359;SDS011;3720;48.274;7.796;2023-07-29T05:03:32;3.25;;;2.00;;
7359;SDS011;3720;48.274;7.796;2023-07-29T05:06:03;3.53;;;1.88;;
7359;SDS011;3720;48.274;7.796;2023-07-29T05:08:36;4.63;;;2.00;;
7359;SDS011;3720;48.274;7.796;2023-07-29T05:11:08;2.85;;;1.60;;
7359;SDS011;3720;48.274;7.796;2023-07-29T05:13:41;3.67;;;2.05;;
7359;SDS011;3720;48.274;7.796;2023-07-29T05:16:14;3.20;;;1.77;;
7359;SDS011;3720;48.274;7.796;2023-07-29T05:18:45;3.30;;;2.03;;
7359;SDS011;3720;48.274;7.796;2023-07-29T05:21:17;3.88;;;2.35;;
7359;SDS011;3720;48.274;7.796;2023-07-29T05:23:49;2.80;;;1.73;;
7359;SDS011;3720;48.274;7.796;2023-07-29T05:26:21;4.32;;;1.98;;
7359;SDS011;3720;48.274;7.796;2023-07-29T05:28:54;4.25;;;2.10;;
7359;SDS011;3720;48.274;7.796;2023-07-29T05:31:26;7.68;;;3.70;;
7359;SDS011;3720;48.274;7.796;2023-07-29T05:33:58;5.53;;;3.17;;
7359;SDS011;3720;48.274;7.796;2023-07-29T05:36:30;4.13;;;2.38;;
7359;SDS011;3720;48.274;7.796;2023-07-29T05:39:02;5.00;;;2.35;;
7359;SDS011;3720;48.274;7.796;2023-07-29T05:41:34;6.75;;;2.90;;
7359;SDS011;3720;48.274;7.796;2023-07-29T05:44:07;7.00;;;2.72;;
7359;SDS011;3720;48.274;7.796;2023-07-29T05:46:39;5.60;;;2.90;;
7359;SDS011;3720;48.274;7.796;2023-07-29T05:49:11;5.35;;;2.80;;
7359;SDS011;3720;48.274;7.796;2023-07-29T05:51:43;4.72;;;2.50;;
7359;SDS011;3720;48.274;7.796;2023-07-29T05:54:17;4.35;;;2.10;;
7359;SDS011;3720;48.274;7.796;2023-07-29T05:56:49;5.97;;;2.25;;
7359;SDS011;3720;48.274;7.796;2023-07-29T05:59:23;4.20;;;2.42;;
7359;SDS011;3720;48.274;7.796;2023-07-29T06:01:55;7.38;;;2.45;;
7359;SDS011;3720;48.274;7.796;2023-07-29T06:04:27;4.95;;;2.60;;
7359;SDS011;3720;48.274;7.796;2023-07-29T06:06:59;3.13;;;2.50;;
7359;SDS011;3720;48.274;7.796;2023-07-29T06:09:31;5.57;;;2.80;;
7359;SDS011;3720;48.274;7.796;2023-07-29T06:12:03;6.38;;;2.60;;
7359;SDS011;3720;48.274;7.796;2023-07-29T06:14:37;6.20;;;2.75;;
7359;SDS011;3720;48.274;7.796;2023-07-29T06:17:09;4.63;;;2.95;;
7359;SDS011;3720;48.274;7.796;2023-07-29T06:19:41;5.13;;;2.65;;
7359;SDS011;3720;48.274;7.796;2023-07-29T06:22:13;4.72;;;2.88;;
7359;SDS011;3720;48.274;7.796;2023-07-29T06:24:45;7.03;;;2.97;;
7359;SDS011;3720;48.274;7.796;2023-07-29T06:27:17;4.35;;;2.60;;
7359;SDS011;3720;48.274;7.796;2023-07-29T06:29:50;6.03;;;2.78;;
7359;SDS011;3720;48.274;7.796;2023-07-29T06:32:22;5.13;;;2.72;;
7359;SDS011;3720;48.274;7.796;2023-07-29T06:34:54;4.45;;;3.00;;
7359;SDS011;3720;48.274;7.796;2023-07-29T06:37:25;4.20;;;2.60;;
7359;SDS011;3720;48.274;7.796;2023-07-29T06:39:57;4.18;;;2.80;;
7359;SDS011;3720;48.274;7.796;2023-07-29T06:42:29;5.43;;;2.67;;
7359;SDS011;3720;48.274;7.796;2023-07-29T06:45:02;5.40;;;2.67;;
7359;SDS011;3720;48.274;7.796;2023-07-29T06:47:35;4.45;;;2.97;;
7359;SDS011;3720;48.274;7.796;2023-07-29T06:50:07;3.65;;;2.67;;
7359;SDS011;3720;48.274;7.796;2023-07-29T06:52:40;4.57;;;3.05;;
7359;SDS011;3720;48.274;7.796;2023-07-29T06:55:11;5.93;;;3.20;;
7359;SDS011;3720;48.274;7.796;2023-07-29T06:57:43;6.57;;;3.50;;
7359;SDS011;3720;48.274;7.796;2023-07-29T07:00:16;6.50;;;2.97;;
7359;SDS011;3720;48.274;7.796;2023-07-29T07:02:49;4.43;;;3.28;;
7359;SDS011;3720;48.274;7.796;2023-07-29T07:05:21;6.07;;;3.40;;
7359;SDS011;3720;48.274;7.796;2023-07-29T07:07:52;5.20;;;3.00;;
7359;SDS011;3720;48.274;7.796;2023-07-29T07:10:24;4.68;;;2.97;;
7359;SDS011;3720;48.274;7.796;2023-07-29T07:12:56;4.72;;;2.90;;
7359;SDS011;3720;48.274;7.796;2023-07-29T07:15:29;6.32;;;2.78;;
7359;SDS011;3720;48.274;7.796;2023-07-29T07:18:02;5.68;;;2.90;;
7359;SDS011;3720;48.274;7.796;2023-07-29T07:20:34;4.93;;;2.67;;
7359;SDS011;3720;48.274;7.796;2023-07-29T07:23:06;4.75;;;2.55;;
7359;SDS011;3720;48.274;7.796;2023-07-29T07:25:42;3.35;;;2.45;;
7359;SDS011;3720;48.274;7.796;2023-07-29T07:28:14;4.20;;;2.80;;
7359;SDS011;3720;48.274;7.796;2023-07-29T07:30:47;6.82;;;2.38;;
7359;SDS011;3720;48.274;7.796;2023-07-29T07:33:19;3.97;;;2.40;;
7359;SDS011;3720;48.274;7.796;2023-07-29T07:35:51;3.47;;;2.30;;
7359;SDS011;3720;48.274;7.796;2023-07-29T07:38:24;2.58;;;2.13;;
7359;SDS011;3720;48.274;7.796;2023-07-29T07:40:56;5.07;;;2.22;;
7359;SDS011;3720;48.274;7.796;2023-07-29T07:43:28;2.53;;;2.10;;
7359;SDS011;3720;48.274;7.796;2023-07-29T07:46:01;3.05;;;1.88;;
7359;SDS011;3720;48.274;7.796;2023-07-29T07:48:34;3.72;;;2.38;;
7359;SDS011;3720;48.274;7.796;2023-07-29T07:51:09;5.70;;;2.25;;
7359;SDS011;3720;48.274;7.796;2023-07-29T07:53:42;4.22;;;2.15;;
7359;SDS011;3720;48.274;7.796;2023-07-29T07:56:14;5.30;;;2.08;;
7359;SDS011;3720;48.274;7.796;2023-07-29T07:58:46;3.40;;;2.30;;
7359;SDS011;3720;48.274;7.796;2023-07-29T08:01:19;2.70;;;1.98;;
7359;SDS011;3720;48.274;7.796;2023-07-29T08:03:51;4.05;;;2.30;;
7359;SDS011;3720;48.274;7.796;2023-07-29T08:06:23;2.58;;;2.10;;
7359;SDS011;3720;48.274;7.796;2023-07-29T08:08:55;8.07;;;2.30;;
7359;SDS011;3720;48.274;7.796;2023-07-29T08:11:27;6.68;;;2.35;;
7359;SDS011;3720;48.274;7.796;2023-07-29T08:13:59;4.13;;;2.40;;
7359;SDS011;3720;48.274;7.796;2023-07-29T08:16:32;4.18;;;2.40;;
7359;SDS011;3720;48.274;7.796;2023-07-29T08:19:04;3.67;;;2.17;;
7359;SDS011;3720;48.274;7.796;2023-07-29T08:21:37;3.47;;;2.00;;
7359;SDS011;3720;48.274;7.796;2023-07-29T08:24:09;3.78;;;2.30;;
7359;SDS011;3720;48.274;7.796;2023-07-29T08:26:40;2.40;;;1.98;;
7359;SDS011;3720;48.274;7.796;2023-07-29T08:29:12;3.25;;;2.03;;
7359;SDS011;3720;48.274;7.796;2023-07-29T08:31:45;3.20;;;2.10;;
7359;SDS011;3720;48.274;7.796;2023-07-29T08:34:17;3.33;;;2.17;;
7359;SDS011;3720;48.274;7.796;2023-07-29T08:36:49;3.70;;;2.30;;
7359;SDS011;3720;48.274;7.796;2023-07-29T08:39:21;2.75;;;1.95;;
7359;SDS011;3720;48.274;7.796;2023-07-29T08:41:54;2.55;;;1.88;;
7359;SDS011;3720;48.274;7.796;2023-07-29T08:44:30;3.35;;;2.17;;
7359;SDS011;3720;48.274;7.796;2023-07-29T08:47:08;4.38;;;2.00;;
7359;SDS011;3720;48.274;7.796;2023-07-29T08:49:40;3.95;;;2.08;;
7359;SDS011;3720;48.274;7.796;2023-07-29T08:52:13;2.55;;;1.63;;
7359;SDS011;3720;48.274;7.796;2023-07-29T08:54:47;3.83;;;1.92;;
7359;SDS011;3720;48.274;7.796;2023-07-29T08:57:19;2.10;;;1.90;;
7359;SDS011;3720;48.274;7.796;2023-07-29T08:59:52;2.17;;;1.98;;
7359;SDS011;3720;48.274;7.796;2023-07-29T09:02:26;4.15;;;2.03;;
7359;SDS011;3720;48.274;7.796;2023-07-29T09:04:58;3.63;;;2.08;;
7359;SDS011;3720;48.274;7.796;2023-07-29T09:07:30;3.53;;;2.10;;
7359;SDS011;3720;48.274;7.796;2023-07-29T09:10:05;2.42;;;2.10;;
7359;SDS011;3720;48.274;7.796;2023-07-29T09:12:40;3.85;;;1.92;;
7359;SDS011;3720;48.274;7.796;2023-07-29T09:15:12;2.20;;;1.80;;
7359;SDS011;3720;48.274;7.796;2023-07-29T09:17:46;3.55;;;1.80;;
7359;SDS011;3720;48.274;7.796;2023-07-29T09:20:22;2.17;;;1.98;;
7359;SDS011;3720;48.274;7.796;2023-07-29T09:22:58;2.58;;;2.10;;
7359;SDS011;3720;48.274;7.796;2023-07-29T09:25:30;2.97;;;2.13;;
7359;SDS011;3720;48.274;7.796;2023-07-29T09:28:10;2.83;;;2.00;;
7359;SDS011;3720;48.274;7.796;2023-07-29T09:30:45;2.30;;;1.90;;
7359;SDS011;3720;48.274;7.796;2023-07-29T09:33:19;6.82;;;1.90;;
7359;SDS011;3720;48.274;7.796;2023-07-29T09:35:51;3.58;;;2.00;;
7359;SDS011;3720;48.274;7.796;2023-07-29T09:38:25;2.42;;;1.92;;
7359;SDS011;3720;48.274;7.796;2023-07-29T09:40:59;3.75;;;1.70;;
7359;SDS011;3720;48.274;7.796;2023-07-29T09:43:31;3.17;;;1.80;;
7359;SDS011;3720;48.274;7.796;2023-07-29T09:46:04;4.15;;;1.98;;
7359;SDS011;3720;48.274;7.796;2023-07-29T09:48:39;2.25;;;1.83;;
7359;SDS011;3720;48.274;7.796;2023-07-29T09:51:13;4.47;;;2.10;;
7359;SDS011;3720;48.274;7.796;2023-07-29T09:53:46;2.20;;;2.00;;
7359;SDS011;3720;48.274;7.796;2023-07-29T09:56:26;2.95;;;1.80;;
7359;SDS011;3720;48.274;7.796;2023-07-29T09:58:59;5.28;;;1.95;;
7359;SDS011;3720;48.274;7.796;2023-07-29T10:01:31;4.28;;;2.30;;
7359;SDS011;3720;48.274;7.796;2023-07-29T10:04:06;3.35;;;1.98;;
7359;SDS011;3720;48.274;7.796;2023-07-29T10:06:40;3.60;;;1.85;;
7359;SDS011;3720;48.274;7.796;2023-07-29T10:09:13;2.33;;;1.77;;
7359;SDS011;3720;48.274;7.796;2023-07-29T10:11:45;2.45;;;1.70;;
7359;SDS011;3720;48.274;7.796;2023-07-29T10:14:19;2.22;;;1.90;;
7359;SDS011;3720;48.274;7.796;2023-07-29T10:16:51;2.28;;;1.90;;
7359;SDS011;3720;48.274;7.796;2023-07-29T10:19:25;2.90;;;1.85;;
7359;SDS011;3720;48.274;7.796;2023-07-29T10:21:58;1.83;;;1.67;;
7359;SDS011;3720;48.274;7.796;2023-07-29T10:24:32;3.95;;;2.05;;
7359;SDS011;3720;48.274;7.796;2023-07-29T10:27:05;2.72;;;1.73;;
7359;SDS011;3720;48.274;7.796;2023-07-29T10:29:43;3.92;;;2.08;;
7359;SDS011;3720;48.274;7.796;2023-07-29T10:32:16;2.30;;;1.80;;
7359;SDS011;3720;48.274;7.796;2023-07-29T10:34:50;2.20;;;1.70;;
7359;SDS011;3720;48.274;7.796;2023-07-29T10:37:22;3.35;;;1.98;;
7359;SDS011;3720;48.274;7.796;2023-07-29T10:39:55;3.58;;;2.08;;
7359;SDS011;3720;48.274;7.796;2023-07-29T10:42:27;3.00;;;1.77;;
7359;SDS011;3720;48.274;7.796;2023-07-29T10:44:59;2.10;;;1.88;;
7359;SDS011;3720;48.274;7.796;2023-07-29T10:47:31;1.90;;;1.73;;
7359;SDS011;3720;48.274;7.796;2023-07-29T10:50:16;2.05;;;1.85;;
7359;SDS011;3720;48.274;7.796;2023-07-29T10:52:49;2.15;;;1.80;;
7359;SDS011;3720;48.274;7.796;2023-07-29T10:55:26;2.45;;;1.80;;
7359;SDS011;3720;48.274;7.796;2023-07-29T10:58:07;2.00;;;1.80;;
7359;SDS011;3720;48.274;7.796;2023-07-29T11:00:44;3.58;;;1.80;;
7359;SDS011;3720;48.274;7.796;2023-07-29T11:03:16;1.70;;;1.60;;
7359;SDS011;3720;48.274;7.796;2023-07-29T11:05:50;2.88;;;1.73;;
7359;SDS011;3720;48.274;7.796;2023-07-29T11:08:25;2.15;;;1.80;;
7359;SDS011;3720;48.274;7.796;2023-07-29T11:11:00;3.85;;;1.80;;
7359;SDS011;3720;48.274;7.796;2023-07-29T11:13:35;3.00;;;1.70;;
7359;SDS011;3720;48.274;7.796;2023-07-29T11:16:09;1.98;;;1.60;;
7359;SDS011;3720;48.274;7.796;2023-07-29T11:18:47;2.45;;;1.70;;
7359;SDS011;3720;48.274;7.796;2023-07-29T11:21:21;1.90;;;1.70;;
7359;SDS011;3720;48.274;7.796;2023-07-29T11:23:53;2.58;;;1.83;;
7359;SDS011;3720;48.274;7.796;2023-07-29T11:26:25;1.77;;;1.60;;
7359;SDS011;3720;48.274;7.796;2023-07-29T11:28:59;3.42;;;1.70;;
7359;SDS011;3720;48.274;7.796;2023-07-29T11:31:38;1.98;;;1.50;;
7359;SDS011;3720;48.274;7.796;2023-07-29T11:34:11;1.98;;;1.63;;
7359;SDS011;3720;48.274;7.796;2023-07-29T11:36:48;3.17;;;1.85;;
7359;SDS011;3720;48.274;7.796;2023-07-29T11:39:20;3.10;;;1.80;;
7359;SDS011;3720;48.274;7.796;2023-07-29T11:41:52;3.60;;;1.90;;
7359;SDS011;3720;48.274;7.796;2023-07-29T11:44:24;3.58;;;1.73;;
7359;SDS011;3720;48.274;7.796;2023-07-29T11:46:57;2.70;;;1.73;;
7359;SDS011;3720;48.274;7.796;2023-07-29T11:49:29;2.80;;;1.85;;
7359;SDS011;3720;48.274;7.796;2023-07-29T11:52:03;2.35;;;1.70;;
7359;SDS011;3720;48.274;7.796;2023-07-29T11:54:37;2.38;;;1.63;;
7359;SDS011;3720;48.274;7.796;2023-07-29T11:57:10;2.28;;;1.77;;
7359;SDS011;3720;48.274;7.796;2023-07-29T11:59:43;2.13;;;1.85;;
7359;SDS011;3720;48.274;7.796;2023-07-29T12:02:16;1.80;;;1.60;;
7359;SDS011;3720;48.274;7.796;2023-07-29T12:04:51;2.50;;;1.70;;
7359;SDS011;3720;48.274;7.796;2023-07-29T12:07:25;2.03;;;1.60;;
7359;SDS011;3720;48.274;7.796;2023-07-29T12:09:58;3.03;;;1.70;;
7359;SDS011;3720;48.274;7.796;2023-07-29T12:12:30;2.25;;;1.70;;
7359;SDS011;3720;48.274;7.796;2023-07-29T12:15:03;2.25;;;1.73;;
7359;SDS011;3720;48.274;7.796;2023-07-29T12:17:37;2.15;;;1.95;;
7359;SDS011;3720;48.274;7.796;2023-07-29T12:20:11;2.28;;;1.85;;
7359;SDS011;3720;48.274;7.796;2023-07-29T12:22:45;2.08;;;1.58;;
7359;SDS011;3720;48.274;7.796;2023-07-29T12:25:22;2.58;;;1.83;;
7359;SDS011;3720;48.274;7.796;2023-07-29T12:27:54;1.80;;;1.60;;
7359;SDS011;3720;48.274;7.796;2023-07-29T12:30:26;2.22;;;1.70;;
7359;SDS011;3720;48.274;7.796;2023-07-29T12:32:58;1.80;;;1.50;;
7359;SDS011;3720;48.274;7.796;2023-07-29T12:35:36;2.55;;;1.80;;
7359;SDS011;3720;48.274;7.796;2023-07-29T12:38:10;2.83;;;1.73;;
7359;SDS011;3720;48.274;7.796;2023-07-29T12:40:41;2.17;;;1.60;;
7359;SDS011;3720;48.274;7.796;2023-07-29T12:43:13;2.00;;;1.80;;
7359;SDS011;3720;48.274;7.796;2023-07-29T12:45:45;1.90;;;1.55;;
7359;SDS011;3720;48.274;7.796;2023-07-29T12:48:17;1.60;;;1.50;;
7359;SDS011;3720;48.274;7.796;2023-07-29T12:50:49;1.75;;;1.60;;
7359;SDS011;3720;48.274;7.796;2023-07-29T12:53:23;3.10;;;1.65;;
7359;SDS011;3720;48.274;7.796;2023-07-29T12:55:54;2.60;;;1.60;;
7359;SDS011;3720;48.274;7.796;2023-07-29T12:58:26;2.08;;;1.60;;
7359;SDS011;3720;48.274;7.796;2023-07-29T13:00:58;2.08;;;1.70;;
7359;SDS011;3720;48.274;7.796;2023-07-29T13:03:30;2.35;;;1.75;;
7359;SDS011;3720;48.274;7.796;2023-07-29T13:06:03;3.05;;;1.60;;
7359;SDS011;3720;48.274;7.796;2023-07-29T13:08:36;2.88;;;1.60;;
7359;SDS011;3720;48.274;7.796;2023-07-29T13:11:08;1.90;;;1.58;;
7359;SDS011;3720;48.274;7.796;2023-07-29T13:13:40;1.95;;;1.60;;
7359;SDS011;3720;48.274;7.796;2023-07-29T13:16:12;2.25;;;1.70;;
7359;SDS011;3720;48.274;7.796;2023-07-29T13:18:44;2.88;;;1.60;;
7359;SDS011;3720;48.274;7.796;2023-07-29T13:21:16;2.42;;;1.67;;
7359;SDS011;3720;48.274;7.796;2023-07-29T13:23:49;2.35;;;1.60;;
7359;SDS011;3720;48.274;7.796;2023-07-29T13:26:22;2.05;;;1.75;;
7359;SDS011;3720;48.274;7.796;2023-07-29T13:28:54;2.75;;;1.73;;
7359;SDS011;3720;48.274;7.796;2023-07-29T13:31:27;2.72;;;1.50;;
7359;SDS011;3720;48.274;7.796;2023-07-29T13:33:59;2.55;;;1.80;;
7359;SDS011;3720;48.274;7.796;2023-07-29T13:36:31;1.80;;;1.70;;
7359;SDS011;3720;48.274;7.796;2023-07-29T13:39:04;1.88;;;1.58;;
7359;SDS011;3720;48.274;7.796;2023-07-29T13:41:36;2.30;;;1.98;;
7359;SDS011;3720;48.274;7.796;2023-07-29T13:44:08;3.50;;;1.92;;
7359;SDS011;3720;48.274;7.796;2023-07-29T13:46:40;3.45;;;1.80;;
7359;SDS011;3720;48.274;7.796;2023-07-29T13:49:12;1.73;;;1.58;;
7359;SDS011;3720;48.274;7.796;2023-07-29T13:51:44;1.83;;;1.67;;
7359;SDS011;3720;48.274;7.796;2023-07-29T13:54:17;1.85;;;1.70;;
7359;SDS011;3720;48.274;7.796;2023-07-29T13:56:49;2.22;;;1.63;;
7359;SDS011;3720;48.274;7.796;2023-07-29T13:59:21;1.80;;;1.70;;
7359;SDS011;3720;48.274;7.796;2023-07-29T14:01:53;2.00;;;1.80;;
7359;SDS011;3720;48.274;7.796;2023-07-29T14:04:25;2.55;;;1.85;;
7359;SDS011;3720;48.274;7.796;2023-07-29T14:06:57;2.75;;;1.60;;
7359;SDS011;3720;48.274;7.796;2023-07-29T14:09:30;2.25;;;1.70;;
7359;SDS011;3720;48.274;7.796;2023-07-29T14:12:02;2.47;;;1.50;;
7359;SDS011;3720;48.274;7.796;2023-07-29T14:14:35;2.03;;;1.67;;
7359;SDS011;3720;48.274;7.796;2023-07-29T14:17:07;2.58;;;1.80;;
7359;SDS011;3720;48.274;7.796;2023-07-29T14:19:40;2.60;;;1.85;;
7359;SDS011;3720;48.274;7.796;2023-07-29T14:22:11;1.60;;;1.50;;
7359;SDS011;3720;48.274;7.796;2023-07-29T14:24:45;2.15;;;1.92;;
7359;SDS011;3720;48.274;7.796;2023-07-29T14:27:17;1.92;;;1.70;;
7359;SDS011;3720;48.274;7.796;2023-07-29T14:29:48;2.67;;;2.00;;
7359;SDS011;3720;48.274;7.796;2023-07-29T14:32:21;2.33;;;1.90;;
7359;SDS011;3720;48.274;7.796;2023-07-29T14:34:54;2.55;;;1.80;;
7359;SDS011;3720;48.274;7.796;2023-07-29T14:37:26;2.28;;;1.70;;
7359;SDS011;3720;48.274;7.796;2023-07-29T14:39:59;1.70;;;1.60;;
7359;SDS011;3720;48.274;7.796;2023-07-29T14:42:31;2.95;;;1.63;;
7359;SDS011;3720;48.274;7.796;2023-07-29T14:45:03;3.22;;;1.90;;
7359;SDS011;3720;48.274;7.796;2023-07-29T14:47:36;3.15;;;1.90;;
7359;SDS011;3720;48.274;7.796;2023-07-29T14:50:08;3.05;;;1.98;;
7359;SDS011;3720;48.274;7.796;2023-07-29T14:52:40;2.22;;;1.85;;
7359;SDS011;3720;48.274;7.796;2023-07-29T14:55:13;1.98;;;1.60;;
7359;SDS011;3720;48.274;7.796;2023-07-29T14:57:45;2.72;;;1.90;;
7359;SDS011;3720;48.274;7.796;2023-07-29T15:00:18;2.38;;;1.80;;
7359;SDS011;3720;48.274;7.796;2023-07-29T15:02:49;2.10;;;1.80;;
7359;SDS011;3720;48.274;7.796;2023-07-29T15:05:21;2.10;;;1.80;;
7359;SDS011;3720;48.274;7.796;2023-07-29T15:07:53;2.40;;;1.85;;
7359;SDS011;3720;48.274;7.796;2023-07-29T15:10:27;2.45;;;1.90;;
7359;SDS011;3720;48.274;7.796;2023-07-29T15:12:59;2.83;;;1.90;;
7359;SDS011;3720;48.274;7.796;2023-07-29T15:15:31;4.18;;;2.03;;
7359;SDS011;3720;48.274;7.796;2023-07-29T15:18:02;3.83;;;2.10;;
7359;SDS011;3720;48.274;7.796;2023-07-29T15:20:34;5.20;;;2.40;;
7359;SDS011;3720;48.274;7.796;2023-07-29T15:23:06;3.90;;;2.30;;
7359;SDS011;3720;48.274;7.796;2023-07-29T15:25:40;5.25;;;2.40;;
7359;SDS011;3720;48.274;7.796;2023-07-29T15:28:12;2.33;;;2.13;;
7359;SDS011;3720;48.274;7.796;2023-07-29T15:30:44;2.67;;;2.30;;
7359;SDS011;3720;48.274;7.796;2023-07-29T15:33:16;3.92;;;2.47;;
7359;SDS011;3720;48.274;7.796;2023-07-29T15:35:48;4.50;;;2.10;;
7359;SDS011;3720;48.274;7.796;2023-07-29T15:38:20;3.42;;;2.40;;
7359;SDS011;3720;48.274;7.796;2023-07-29T15:40:53;3.28;;;2.30;;
7359;SDS011;3720;48.274;7.796;2023-07-29T15:43:25;4.97;;;2.35;;
7359;SDS011;3720;48.274;7.796;2023-07-29T15:45:57;3.65;;;2.20;;
7359;SDS011;3720;48.274;7.796;2023-07-29T15:48:29;2.97;;;2.22;;
7359;SDS011;3720;48.274;7.796;2023-07-29T15:51:01;3.20;;;2.60;;